Time;durP1;ratioP1;P1;durP2;ratioP2;P2;SDS_P1;SDS_P2;PMS_P1;PMS_P2;Temp;Humidity;BMP_temperature;BMP_pressure;BME280_temperature;BME280_humidity;BME280_pressure;Samples;Min_cycle;Max_cycle;Signal;HPM_P1;HPM_P2
2023/12/25 00:00:09;;;;;;;;;;;;;;;;;;5053625;28;20234;-83
2023/12/25 00:02:34;;;;;;;;;;;;;;;;;;5053482;28;20003;-82
2023/12/25 00:04:59;;;;;;;;;;;;;;;;;;5053279;28;19917;-83
2023/12/25 00:07:24;;;;;;;;;;;;;;;;;;5054667;28;19924;-82
2023/12/25 00:09:49;;;;;;;;;;;;;;;;;;5054273;28;19924;-81
2023/12/25 00:12:14;;;;;;;;;;;;;;;;;;5053426;28;19962;-82
2023/12/25 00:14:39;;;;;;;;;;;;;;;;;;5053057;28;19971;-83
2023/12/25 00:17:04;;;;;;;;;;;;;;;;;;5052976;28;19909;-82
2023/12/25 00:19:30;;;;;;;;;;;;;;;;;;5053381;28;19936;-83
2023/12/25 00:21:55;;;;;;;;;;;;;;;;;;5053103;28;20358;-82
2023/12/25 00:24:20;;;;;;;;;;;;;;;;;;5053307;28;20383;-83
2023/12/25 00:26:45;;;;;;;;;;;;;;;;;;5053614;28;19908;-81
2023/12/25 00:29:10;;;;;;;;;;;;;;;;;;5054445;28;19916;-82
2023/12/25 00:31:35;;;;;;;;;;;;;;;;;;5053376;28;19916;-83
2023/12/25 00:34:00;;;;;;;;;;;;;;;;;;5053634;28;19915;-82
2023/12/25 00:36:25;;;;;;;;;;;;;;;;;;5054599;28;19916;-82
2023/12/25 00:38:50;;;;;;;;;;;;;;;;;;5053293;28;19908;-82
2023/12/25 00:41:15;;;;;;;;;;;;;;;;;;5053092;28;19916;-82
2023/12/25 00:43:41;;;;;;;;;;;;;;;;;;5054445;28;19916;-82
2023/12/25 00:46:06;;;;;;;;;;;;;;;;;;5053344;28;19909;-83
2023/12/25 00:48:31;;;;;;;;;;;;;;;;;;5053245;28;19916;-83
2023/12/25 00:50:56;;;;;;;;;;;;;;;;;;5053875;28;19912;-83
2023/12/25 00:53:21;;;;;;;;;;;;;;;;;;5052877;28;19963;-83
2023/12/25 00:55:47;;;;;;;;;;;;;;;;;;5053017;28;19958;-82
2023/12/25 00:58:12;;;;;;;;;;;;;;;;;;5053376;28;20365;-82
2023/12/25 01:00:37;;;;;;;;;;;;;;;;;;5052780;28;19916;-83
2023/12/25 01:03:02;;;;;;;;;;;;;;;;;;5053747;28;19916;-83
2023/12/25 01:05:27;;;;;;;;;;;;;;;;;;5052242;28;19916;-82
2023/12/25 01:07:52;;;;;;;;;;;;;;;;;;5052548;28;19913;-83
2023/12/25 01:10:17;;;;;;;;;;;;;;;;;;5052435;28;19916;-82
2023/12/25 01:12:42;;;;;;;;;;;;;;;;;;5052379;28;19975;-82
2023/12/25 01:15:07;;;;;;;;;;;;;;;;;;5052383;28;20355;-82
2023/12/25 01:17:33;;;;;;;;;;;;;;;;;;5052575;28;19909;-82
2023/12/25 01:19:58;;;;;;;;;;;;;;;;;;5052598;28;19909;-83
2023/12/25 01:22:23;;;;;;;;;;;;;;;;;;5052249;28;19947;-82
2023/12/25 01:24:48;;;;;;;;;;;;;;;;;;5051745;28;19952;-82
2023/12/25 01:27:13;;;;;;;;;;;;;;;;;;5052857;28;19924;-83
2023/12/25 01:29:38;;;;;;;;;;;;;;;;;;5050592;28;19920;-82
2023/12/25 01:32:03;;;;;;;;;;;;;;;;;;5052749;28;19949;-82
2023/12/25 01:34:28;;;;;;;;;;;;;;;;;;5051219;28;19962;-82
2023/12/25 01:36:53;;;;;;;;;;;;;;;;;;5051390;28;20007;-82
2023/12/25 01:39:18;;;;;;;;;;;;;;;;;;5051205;28;19979;-82
2023/12/25 01:41:43;;;;;;;;;;;;;;;;;;5051336;28;20022;-82
2023/12/25 01:44:09;;;;;;;;;;;;;;;;;;5051272;28;19927;-82
2023/12/25 01:46:34;;;;;;;;;;;;;;;;;;5052420;28;19909;-81
2023/12/25 01:48:59;;;;;;;;;;;;;;;;;;5050970;28;19913;-81
2023/12/25 01:51:24;;;;;;;;;;;;;;;;;;5051138;28;20043;-82
2023/12/25 01:53:49;;;;;;;;;;;;;;;;;;5051205;28;20340;-82
2023/12/25 01:56:14;;;;;;;;;;;;;;;;;;5052455;28;19954;-83
2023/12/25 01:58:39;;;;;;;;;;;;;;;;;;5051049;28;19913;-82
2023/12/25 02:01:04;;;;;;;;;;;;;;;;;;5052401;28;19908;-83
2023/12/25 02:03:30;;;;;;;;;;;;;;;;;;5050866;28;20415;-83
2023/12/25 02:05:55;;;;;;;;;;;;;;;;;;5051041;28;20363;-81
2023/12/25 02:08:20;;;;;;;;;;;;;;;;;;5050979;28;19912;-82
2023/12/25 02:10:45;;;;;;;;;;;;;;;;;;5051003;28;19909;-82
2023/12/25 02:13:10;;;;;;;;;;;;;;;;;;5050952;28;20211;-82
2023/12/25 02:15:35;;;;;;;;;;;;;;;;;;5050873;28;19916;-82
2023/12/25 02:18:00;;;;;;;;;;;;;;;;;;5051097;28;20310;-82
2023/12/25 02:20:25;;;;;;;;;;;;;;;;;;5052018;28;19909;-82
2023/12/25 02:22:50;;;;;;;;;;;;;;;;;;5050971;28;20341;-82
2023/12/25 02:25:15;;;;;;;;;;;;;;;;;;5051077;28;19909;-82
2023/12/25 02:27:41;;;;;;;;;;;;;;;;;;5050873;28;19915;-82
2023/12/25 02:30:06;;;;;;;;;;;;;;;;;;5050691;28;19919;-82
2023/12/25 02:32:31;;;;;;;;;;;;;;;;;;5050777;28;19909;-83
2023/12/25 02:34:56;;;;;;;;;;;;;;;;;;5050913;28;20297;-83
2023/12/25 02:37:21;;;;;;;;;;;;;;;;;;5050654;28;19935;-82
2023/12/25 02:39:46;;;;;;;;;;;;;;;;;;5050702;28;19947;-82
2023/12/25 02:42:11;;;;;;;;;;;;;;;;;;5053983;28;20007;-83
2023/12/25 02:44:36;;;;;;;;;;;;;;;;;;5054640;28;20011;-82
2023/12/25 02:47:02;;;;;;;;;;;;;;;;;;5054684;28;19915;-83
2023/12/25 02:49:27;;;;;;;;;;;;;;;;;;5055587;28;19920;-82
2023/12/25 02:51:52;;;;;;;;;;;;;;;;;;5054350;28;19916;-82
2023/12/25 02:54:17;;;;;;;;;;;;;;;;;;5055869;28;20270;-82
2023/12/25 02:56:42;;;;;;;;;;;;;;;;;;5054438;28;19978;-82
2023/12/25 02:59:07;;;;;;;;;;;;;;;;;;5054599;28;20012;-82
2023/12/25 03:01:32;;;;;;;;;;;;;;;;;;5054150;28;19966;-82
2023/12/25 03:03:57;;;;;;;;;;;;;;;;;;5054282;28;19917;-82
2023/12/25 03:06:23;;;;;;;;;;;;;;;;;;5055372;28;19952;-83
2023/12/25 03:08:48;;;;;;;;;;;;;;;;;;5054391;28;19935;-82
2023/12/25 03:11:13;;;;;;;;;;;;;;;;;;5054005;28;20007;-82
2023/12/25 03:13:38;;;;;;;;;;;;;;;;;;5054203;28;20000;-83
2023/12/25 03:16:03;;;;;;;;;;;;;;;;;;5054092;28;20003;-83
2023/12/25 03:18:28;;;;;;;;;;;;;;;;;;5054036;28;19920;-82
2023/12/25 03:20:53;;;;;;;;;;;;;;;;;;5055145;28;20393;-82
2023/12/25 03:23:18;;;;;;;;;;;;;;;;;;5055495;28;19957;-82
2023/12/25 03:25:43;;;;;;;;;;;;;;;;;;5055503;28;19954;-83
2023/12/25 03:28:08;;;;;;;;;;;;;;;;;;5053900;28;19958;-83
2023/12/25 03:30:33;;;;;;;;;;;;;;;;;;5053665;28;19909;-83
2023/12/25 03:32:59;;;;;;;;;;;;;;;;;;5053816;28;19913;-83
2023/12/25 03:35:24;;;;;;;;;;;;;;;;;;5053513;28;19909;-82
2023/12/25 03:37:49;;;;;;;;;;;;;;;;;;5053605;28;19909;-82
2023/12/25 03:40:14;;;;;;;;;;;;;;;;;;5053624;28;19931;-82
2023/12/25 03:42:39;;;;;;;;;;;;;;;;;;5053462;28;20270;-83
2023/12/25 03:45:04;;;;;;;;;;;;;;;;;;5053970;28;19909;-82
2023/12/25 03:47:29;;;;;;;;;;;;;;;;;;5053696;28;19959;-82
2023/12/25 03:49:54;;;;;;;;;;;;;;;;;;5053247;28;19913;-83
2023/12/25 03:52:19;;;;;;;;;;;;;;;;;;5053846;28;19967;-83
2023/12/25 03:54:44;;;;;;;;;;;;;;;;;;5054744;28;19909;-83
2023/12/25 03:57:11;;;;;;;;;;;;;;;;;;5053521;28;19913;-82
2023/12/25 03:59:36;;;;;;;;;;;;;;;;;;5054321;28;19940;-83
2023/12/25 04:02:01;;;;;;;;;;;;;;;;;;5053016;28;19963;-82
2023/12/25 04:04:26;;;;;;;;;;;;;;;;;;5053209;28;20003;-83
2023/12/25 04:06:51;;;;;;;;;;;;;;;;;;5053015;28;19958;-83
2023/12/25 04:09:16;;;;;;;;;;;;;;;;;;5052929;28;19920;-82
2023/12/25 04:11:41;;;;;;;;;;;;;;;;;;5052953;28;19916;-82
2023/12/25 04:14:06;;;;;;;;;;;;;;;;;;5053138;28;20270;-82
2023/12/25 04:16:31;;;;;;;;;;;;;;;;;;5052912;28;20358;-82
2023/12/25 04:18:56;;;;;;;;;;;;;;;;;;5052894;28;20393;-82
2023/12/25 04:21:22;;;;;;;;;;;;;;;;;;5053955;28;19909;-82
2023/12/25 04:23:47;;;;;;;;;;;;;;;;;;5053357;28;20362;-84
2023/12/25 04:26:12;;;;;;;;;;;;;;;;;;5052878;28;19915;-83
2023/12/25 04:28:37;;;;;;;;;;;;;;;;;;5052704;28;19920;-82
2023/12/25 04:31:02;;;;;;;;;;;;;;;;;;5052665;28;19909;-83
2023/12/25 04:33:27;;;;;;;;;;;;;;;;;;5052724;28;19908;-83
2023/12/25 04:35:53;;;;;;;;;;;;;;;;;;5052994;28;19913;-82
2023/12/25 04:38:18;;;;;;;;;;;;;;;;;;5054065;28;19912;-82
2023/12/25 04:40:43;;;;;;;;;;;;;;;;;;5052542;28;19909;-82
2023/12/25 04:43:08;;;;;;;;;;;;;;;;;;5052689;28;19908;-83
2023/12/25 04:45:33;;;;;;;;;;;;;;;;;;5053749;28;20282;-82
2023/12/25 04:47:58;;;;;;;;;;;;;;;;;;5052598;28;20313;-83
2023/12/25 04:50:23;;;;;;;;;;;;;;;;;;5052576;28;19908;-83
2023/12/25 04:52:48;;;;;;;;;;;;;;;;;;5052238;28;20000;-83
2023/12/25 04:55:13;;;;;;;;;;;;;;;;;;5052206;28;19998;-83
2023/12/25 04:57:38;;;;;;;;;;;;;;;;;;5051900;28;20035;-82
2023/12/25 05:00:04;;;;;;;;;;;;;;;;;;5051976;28;20027;-82
2023/12/25 05:02:29;;;;;;;;;;;;;;;;;;5053215;28;19922;-83
2023/12/25 05:04:54;;;;;;;;;;;;;;;;;;5051890;28;19909;-82
2023/12/25 05:07:19;;;;;;;;;;;;;;;;;;5051793;28;20382;-82
2023/12/25 05:09:44;;;;;;;;;;;;;;;;;;5051715;28;20285;-83
2023/12/25 05:12:09;;;;;;;;;;;;;;;;;;5052878;28;19982;-82
2023/12/25 05:14:34;;;;;;;;;;;;;;;;;;5051773;28;20267;-82
2023/12/25 05:16:59;;;;;;;;;;;;;;;;;;5051754;28;19913;-82
2023/12/25 05:19:25;;;;;;;;;;;;;;;;;;5051623;28;19909;-82
2023/12/25 05:21:50;;;;;;;;;;;;;;;;;;5051432;28;20363;-82
2023/12/25 05:24:15;;;;;;;;;;;;;;;;;;5051604;28;19908;-83
2023/12/25 05:26:40;;;;;;;;;;;;;;;;;;5051713;28;19909;-82
2023/12/25 05:29:05;;;;;;;;;;;;;;;;;;5051431;28;19913;-83
2023/12/25 05:31:30;;;;;;;;;;;;;;;;;;5051291;28;19917;-82
2023/12/25 05:33:55;;;;;;;;;;;;;;;;;;5051382;28;19908;-82
2023/12/25 05:36:20;;;;;;;;;;;;;;;;;;5051271;28;19949;-82
2023/12/25 05:38:45;;;;;;;;;;;;;;;;;;5051411;28;19909;-82
2023/12/25 05:41:10;;;;;;;;;;;;;;;;;;5051182;28;19916;-82
2023/12/25 05:43:36;;;;;;;;;;;;;;;;;;5051275;28;19916;-82
2023/12/25 05:46:01;;;;;;;;;;;;;;;;;;5051381;28;20275;-81
2023/12/25 05:48:26;;;;;;;;;;;;;;;;;;5050943;28;20385;-82
2023/12/25 05:50:51;;;;;;;;;;;;;;;;;;5052143;28;19931;-82
2023/12/25 05:53:16;;;;;;;;;;;;;;;;;;5051178;28;19963;-82
2023/12/25 05:55:41;;;;;;;;;;;;;;;;;;5051027;28;20028;-82
2023/12/25 05:58:06;;;;;;;;;;;;;;;;;;5051109;28;20062;-82
2023/12/25 06:00:31;;;;;;;;;;;;;;;;;;5050874;28;19959;-81
2023/12/25 06:02:56;;;;;;;;;;;;;;;;;;5052476;28;20054;-82
2023/12/25 06:05:22;;;;;;;;;;;;;;;;;;5052275;28;19944;-83
2023/12/25 06:07:47;;;;;;;;;;;;;;;;;;5051303;28;20281;-82
2023/12/25 06:10:12;;;;;;;;;;;;;;;;;;5050646;28;20399;-82
2023/12/25 06:12:37;;;;;;;;;;;;;;;;;;5051026;28;19909;-82
2023/12/25 06:15:05;;;;;;;;;;;;;;;;;;5051488;28;20293;-82
2023/12/25 06:17:30;;;;;;;;;;;;;;;;;;5057518;28;19909;-81
2023/12/25 06:19:56;;;;;;;;;;;;;;;;;;5057142;28;19909;-82
2023/12/25 06:22:21;;;;;;;;;;;;;;;;;;5057400;28;20378;-81
2023/12/25 06:24:46;;;;;;;;;;;;;;;;;;5057519;28;20414;-82
2023/12/25 06:27:11;;;;;;;;;;;;;;;;;;5057406;28;20008;-82
2023/12/25 06:29:36;;;;;;;;;;;;;;;;;;5058346;28;19999;-82
2023/12/25 06:32:02;;;;;;;;;;;;;;;;;;5057365;28;19948;-82
2023/12/25 06:34:27;;;;;;;;;;;;;;;;;;5057390;28;19909;-81
2023/12/25 06:36:53;;;;;;;;;;;;;;;;;;5058957;28;19919;-82
2023/12/25 06:39:18;;;;;;;;;;;;;;;;;;5057303;28;20356;-82
2023/12/25 06:41:43;;;;;;;;;;;;;;;;;;5057199;28;20374;-82
2023/12/25 06:44:08;;;;;;;;;;;;;;;;;;5057325;28;19908;-82
2023/12/25 06:46:35;;;;;;;;;;;;;;;;;;5057229;28;19916;-83
2023/12/25 06:49:00;;;;;;;;;;;;;;;;;;5057062;28;19958;-82
2023/12/25 06:51:26;;;;;;;;;;;;;;;;;;5058363;28;20003;-82
2023/12/25 06:53:51;;;;;;;;;;;;;;;;;;5057304;28;20000;-81
2023/12/25 06:56:16;;;;;;;;;;;;;;;;;;5057384;28;19955;-82
2023/12/25 06:58:41;;;;;;;;;;;;;;;;;;5057108;28;19913;-82
2023/12/25 07:01:06;;;;;;;;;;;;;;;;;;5057272;28;19959;-82
2023/12/25 07:03:33;;;;;;;;;;;;;;;;;;5056766;28;22161;-82
2023/12/25 07:05:58;;;;;;;;;;;;;;;;;;5057248;28;19999;-82
2023/12/25 07:08:27;;;;;;;;;;;;;;;;;;5058283;28;20021;-82
2023/12/25 07:10:52;;;;;;;;;;;;;;;;;;5057117;28;19909;-82
2023/12/25 07:13:17;;;;;;;;;;;;;;;;;;5057259;28;20023;-83
2023/12/25 07:15:42;;;;;;;;;;;;;;;;;;5058348;28;19915;-82
2023/12/25 07:18:07;;;;;;;;;;;;;;;;;;5057717;28;19909;-82
2023/12/25 07:20:32;;;;;;;;;;;;;;;;;;5056756;28;19912;-83
2023/12/25 07:22:58;;;;;;;;;;;;;;;;;;5056916;28;19913;-83
2023/12/25 07:25:23;;;;;;;;;;;;;;;;;;5056782;28;19974;-82
2023/12/25 07:27:48;;;;;;;;;;;;;;;;;;5053830;28;19916;-83
2023/12/25 07:30:13;;;;;;;;;;;;;;;;;;5053889;28;19956;-82
2023/12/25 07:32:38;;;;;;;;;;;;;;;;;;5053933;28;20441;-82
2023/12/25 07:35:03;;;;;;;;;;;;;;;;;;5053824;28;19909;-82
2023/12/25 07:37:28;;;;;;;;;;;;;;;;;;5054908;28;20202;-82
2023/12/25 07:39:53;;;;;;;;;;;;;;;;;;5053539;28;19909;-83
2023/12/25 07:42:18;;;;;;;;;;;;;;;;;;5053658;28;19908;-82
2023/12/25 07:44:44;;;;;;;;;;;;;;;;;;5055046;28;19962;-82
2023/12/25 07:47:09;;;;;;;;;;;;;;;;;;5055044;28;20191;-82
2023/12/25 07:49:34;;;;;;;;;;;;;;;;;;5053200;28;19913;-82
2023/12/25 07:51:59;;;;;;;;;;;;;;;;;;5053455;28;19979;-82
2023/12/25 07:54:24;;;;;;;;;;;;;;;;;;5053468;28;19920;-82
2023/12/25 07:56:49;;;;;;;;;;;;;;;;;;5053506;28;20023;-82
2023/12/25 07:59:14;;;;;;;;;;;;;;;;;;5053338;28;19960;-82
2023/12/25 08:01:39;;;;;;;;;;;;;;;;;;5053174;28;20011;-83
2023/12/25 08:04:04;;;;;;;;;;;;;;;;;;5053428;28;19962;-82
2023/12/25 08:06:30;;;;;;;;;;;;;;;;;;5053251;28;19997;-82
2023/12/25 08:08:56;;;;;;;;;;;;;;;;;;5053204;28;19920;-82
2023/12/25 08:11:21;;;;;;;;;;;;;;;;;;5053169;28;19909;-83
2023/12/25 08:13:46;;;;;;;;;;;;;;;;;;5053214;28;19998;-82
2023/12/25 08:16:11;;;;;;;;;;;;;;;;;;5053372;28;19996;-82
2023/12/25 08:18:36;;;;;;;;;;;;;;;;;;5053380;28;20016;-82
2023/12/25 08:21:01;;;;;;;;;;;;;;;;;;5053096;28;19996;-82
2023/12/25 08:23:26;;;;;;;;;;;;;;;;;;5054465;28;20336;-83
2023/12/25 08:25:51;;;;;;;;;;;;;;;;;;5052938;28;19955;-83
2023/12/25 08:28:17;;;;;;;;;;;;;;;;;;5052800;28;19913;-82
2023/12/25 08:30:43;;;;;;;;;;;;;;;;;;5052790;28;20321;-83
2023/12/25 08:33:08;;;;;;;;;;;;;;;;;;5053831;28;19915;-82
2023/12/25 08:35:33;;;;;;;;;;;;;;;;;;5053111;28;20007;-82
2023/12/25 08:37:59;;;;;;;;;;;;;;;;;;5052726;28;19909;-81
2023/12/25 08:40:25;;;;;;;;;;;;;;;;;;5050516;28;19984;-82
2023/12/25 08:42:50;;;;;;;;;;;;;;;;;;5051060;28;20421;-82
2023/12/25 08:45:15;;;;;;;;;;;;;;;;;;5052046;28;19913;-82
2023/12/25 08:47:40;;;;;;;;;;;;;;;;;;5053236;28;19912;-82
2023/12/25 08:50:07;;;;;;;;;;;;;;;;;;5051893;28;19925;-82
2023/12/25 08:52:32;;;;;;;;;;;;;;;;;;5052171;28;19909;-82
2023/12/25 08:54:57;;;;;;;;;;;;;;;;;;5052209;28;20492;-82
2023/12/25 08:57:23;;;;;;;;;;;;;;;;;;5052612;28;19962;-81
2023/12/25 08:59:49;;;;;;;;;;;;;;;;;;5051754;28;19909;-82
2023/12/25 09:02:15;;;;;;;;;;;;;;;;;;5051825;28;20286;-82
2023/12/25 09:04:40;;;;;;;;;;;;;;;;;;5053139;28;19913;-81
2023/12/25 09:07:05;;;;;;;;;;;;;;;;;;5052016;28;20393;-81
2023/12/25 09:09:30;;;;;;;;;;;;;;;;;;5051756;28;20374;-82
2023/12/25 09:11:56;;;;;;;;;;;;;;;;;;5051750;28;19909;-81
2023/12/25 09:14:21;;;;;;;;;;;;;;;;;;5051968;28;19908;-82
2023/12/25 09:16:47;;;;;;;;;;;;;;;;;;5051234;28;19920;-83
2023/12/25 09:19:12;;;;;;;;;;;;;;;;;;5052042;28;20028;-82
2023/12/25 09:21:37;;;;;;;;;;;;;;;;;;5051338;28;21079;-83
2023/12/25 09:24:02;;;;;;;;;;;;;;;;;;5050666;28;20007;-83
2023/12/25 09:26:27;;;;;;;;;;;;;;;;;;5051428;28;19915;-83
2023/12/25 09:28:52;;;;;;;;;;;;;;;;;;5051408;28;19912;-82
2023/12/25 09:31:17;;;;;;;;;;;;;;;;;;5051164;28;19908;-82
2023/12/25 09:33:43;;;;;;;;;;;;;;;;;;5051252;28;19909;-83
2023/12/25 09:36:08;;;;;;;;;;;;;;;;;;5051368;28;20294;-83
2023/12/25 09:38:33;;;;;;;;;;;;;;;;;;5052535;28;19934;-82
2023/12/25 09:40:58;;;;;;;;;;;;;;;;;;5052621;28;19916;-82
2023/12/25 09:43:23;;;;;;;;;;;;;;;;;;5051262;28;20336;-82
2023/12/25 09:45:48;;;;;;;;;;;;;;;;;;5047683;28;20388;-81
2023/12/25 09:48:13;;;;;;;;;;;;;;;;;;5051073;28;19913;-81
2023/12/25 09:50:39;;;;;;;;;;;;;;;;;;5049757;28;20397;-82
2023/12/25 09:53:04;;;;;;;;;;;;;;;;;;5052615;28;19987;-83
2023/12/25 09:55:29;;;;;;;;;;;;;;;;;;5052426;28;19915;-83
2023/12/25 09:57:54;;;;;;;;;;;;;;;;;;5052087;28;19916;-82
2023/12/25 10:00:19;;;;;;;;;;;;;;;;;;5052010;28;19908;-83
2023/12/25 10:02:44;;;;;;;;;;;;;;;;;;5051831;28;19918;-82
2023/12/25 10:05:09;;;;;;;;;;;;;;;;;;5051845;28;20317;-82
2023/12/25 10:07:34;;;;;;;;;;;;;;;;;;5051337;28;19909;-81
2023/12/25 10:09:59;;;;;;;;;;;;;;;;;;5051597;28;20380;-82
2023/12/25 10:12:25;;;;;;;;;;;;;;;;;;5051494;28;19916;-82
2023/12/25 10:14:50;;;;;;;;;;;;;;;;;;5052625;28;19920;-80
2023/12/25 10:17:15;;;;;;;;;;;;;;;;;;5053057;28;20301;-82
2023/12/25 10:19:40;;;;;;;;;;;;;;;;;;5051384;28;20362;-83
2023/12/25 10:22:05;;;;;;;;;;;;;;;;;;5052471;28;19952;-82
2023/12/25 10:24:30;;;;;;;;;;;;;;;;;;5051026;28;19951;-82
2023/12/25 10:26:57;;;;;;;;;;;;;;;;;;5051184;28;19999;-83
2023/12/25 10:29:22;;;;;;;;;;;;;;;;;;5050911;28;19913;-81
2023/12/25 10:31:48;;;;;;;;;;;;;;;;;;5052353;28;19915;-82
2023/12/25 10:34:13;;;;;;;;;;;;;;;;;;5050766;28;19909;-83
2023/12/25 10:36:38;;;;;;;;;;;;;;;;;;5050865;28;19913;-82
2023/12/25 10:39:03;;;;;;;;;;;;;;;;;;5051744;28;19947;-82
2023/12/25 10:41:31;;;;;;;;;;;;;;;;;;5052242;28;19979;-83
2023/12/25 10:43:56;;;;;;;;;;;;;;;;;;5050538;28;20370;-83
2023/12/25 10:46:21;;;;;;;;;;;;;;;;;;5050888;28;20401;-82
2023/12/25 10:48:49;;;;;;;;;;;;;;;;;;5051015;28;19913;-77
2023/12/25 10:51:14;;;;;;;;;;;;;;;;;;5053729;28;19966;-77
2023/12/25 10:53:39;;;;;;;;;;;;;;;;;;5052882;28;19917;-77
2023/12/25 10:56:05;;;;;;;;;;;;;;;;;;5054405;28;19915;-78
2023/12/25 10:58:30;;;;;;;;;;;;;;;;;;5052546;28;19920;-83
2023/12/25 11:00:56;;;;;;;;;;;;;;;;;;5061577;28;19935;-83
2023/12/25 11:03:21;;;;;;;;;;;;;;;;;;5054177;28;19967;-83
2023/12/25 11:05:46;;;;;;;;;;;;;;;;;;5055853;28;19967;-83
2023/12/25 11:08:11;;;;;;;;;;;;;;;;;;5097054;22;19960;-85
2023/12/25 11:10:36;;;;;;;;;;;;;;;;;;5075511;28;19977;-84
2023/12/25 11:13:02;;;;;;;;;;;;;;;;;;5075587;28;19915;-83
2023/12/25 11:15:27;;;;;;;;;;;;;;;;;;5075170;28;19971;-85
2023/12/25 11:17:52;;;;;;;;;;;;;;;;;;5075051;28;19915;-86
2023/12/25 11:20:17;;;;;;;;;;;;;;;;;;5074837;28;19916;-84
2023/12/25 11:22:44;;;;;;;;;;;;;;;;;;5073325;28;19923;-86
2023/12/25 11:25:09;;;;;;;;;;;;;;;;;;5074860;28;19915;-85
2023/12/25 11:27:34;;;;;;;;;;;;;;;;;;5075112;28;19908;-84
2023/12/25 11:30:00;;;;;;;;;;;;;;;;;;5073615;28;19912;-85
2023/12/25 11:32:25;;;;;;;;;;;;;;;;;;5073426;28;20295;-86
2023/12/25 11:34:50;;;;;;;;;;;;;;;;;;5073667;28;19909;-85
2023/12/25 11:37:16;;;;;;;;;;;;;;;;;;5071392;28;19912;-85
2023/12/25 11:39:41;;;;;;;;;;;;;;;;;;5067195;28;19913;-85
2023/12/25 11:42:06;;;;;;;;;;;;;;;;;;5072485;28;19916;-84
2023/12/25 11:44:31;;;;;;;;;;;;;;;;;;5074130;28;19999;-85
2023/12/25 11:46:56;;;;;;;;;;;;;;;;;;5073888;28;19957;-84
2023/12/25 11:49:21;;;;;;;;;;;;;;;;;;5073363;28;19919;-85
2023/12/25 11:51:46;;;;;;;;;;;;;;;;;;5072469;28;20033;-84
2023/12/25 11:54:11;;;;;;;;;;;;;;;;;;5072691;28;19916;-84
2023/12/25 11:56:37;;;;;;;;;;;;;;;;;;5074415;28;19915;-84
2023/12/25 11:59:02;;;;;;;;;;;;;;;;;;5073294;28;19962;-85
2023/12/25 12:01:27;;;;;;;;;;;;;;;;;;5066926;28;19912;-84
2023/12/25 12:03:52;;;;;;;;;;;;;;;;;;5073017;28;19912;-84
2023/12/25 12:06:19;;;;;;;;;;;;;;;;;;5074571;28;20278;-84
2023/12/25 12:08:44;;;;;;;;;;;;;;;;;;5066068;28;19963;-83
2023/12/25 12:11:10;;;;;;;;;;;;;;;;;;5074557;28;19947;-85
2023/12/25 12:13:36;;;;;;;;;;;;;;;;;;5073405;28;20386;-84
2023/12/25 12:16:01;;;;;;;;;;;;;;;;;;5073266;28;19912;-84
2023/12/25 12:18:26;;;;;;;;;;;;;;;;;;5074318;28;19994;-84
2023/12/25 12:20:51;;;;;;;;;;;;;;;;;;5071850;28;19955;-84
2023/12/25 12:23:17;;;;;;;;;;;;;;;;;;5071722;28;19933;-84
2023/12/25 12:25:42;;;;;;;;;;;;;;;;;;5074150;28;20421;-84
2023/12/25 12:28:08;;;;;;;;;;;;;;;;;;5074166;28;19908;-85
2023/12/25 12:30:33;;;;;;;;;;;;;;;;;;5074564;28;19913;-85
2023/12/25 12:32:58;;;;;;;;;;;;;;;;;;5075765;28;19908;-85
2023/12/25 12:35:23;;;;;;;;;;;;;;;;;;5074414;28;19912;-84
2023/12/25 12:37:48;;;;;;;;;;;;;;;;;;5071512;28;20025;-84
2023/12/25 12:40:14;;;;;;;;;;;;;;;;;;5072576;28;20375;-85
2023/12/25 12:42:39;;;;;;;;;;;;;;;;;;5073613;28;19954;-84
2023/12/25 12:45:04;;;;;;;;;;;;;;;;;;5072689;28;20003;-85
2023/12/25 12:47:30;;;;;;;;;;;;;;;;;;5072707;28;19913;-84
2023/12/25 12:49:55;;;;;;;;;;;;;;;;;;5069785;28;19960;-84
2023/12/25 12:52:20;;;;;;;;;;;;;;;;;;5074459;28;19950;-84
2023/12/25 12:54:45;;;;;;;;;;;;;;;;;;5076150;28;19995;-84
2023/12/25 12:57:11;;;;;;;;;;;;;;;;;;5074318;28;19909;-84
2023/12/25 12:59:36;;;;;;;;;;;;;;;;;;5075526;28;19995;-85
2023/12/25 13:02:01;;;;;;;;;;;;;;;;;;5075090;28;19962;-85
2023/12/25 13:04:26;;;;;;;;;;;;;;;;;;5074565;28;20375;-85
2023/12/25 13:06:51;;;;;;;;;;;;;;;;;;5073010;28;19915;-85
2023/12/25 13:09:17;;;;;;;;;;;;;;;;;;5071716;28;20007;-84
2023/12/25 13:11:42;;;;;;;;;;;;;;;;;;5071917;28;20033;-84
2023/12/25 13:14:07;;;;;;;;;;;;;;;;;;5072242;28;19958;-84
2023/12/25 13:16:33;;;;;;;;;;;;;;;;;;5072378;28;19909;-84
2023/12/25 13:18:58;;;;;;;;;;;;;;;;;;5073543;28;20363;-84
2023/12/25 13:21:23;;;;;;;;;;;;;;;;;;5071744;28;19908;-84
2023/12/25 13:23:48;;;;;;;;;;;;;;;;;;5073496;28;19908;-84
2023/12/25 13:26:13;;;;;;;;;;;;;;;;;;5071279;28;19912;-84
2023/12/25 13:28:40;;;;;;;;;;;;;;;;;;5073209;28;20011;-85
2023/12/25 13:31:05;;;;;;;;;;;;;;;;;;5073127;28;19923;-85
2023/12/25 13:33:30;;;;;;;;;;;;;;;;;;5073129;28;19912;-84
2023/12/25 13:35:55;;;;;;;;;;;;;;;;;;5073182;28;19908;-84
2023/12/25 13:38:20;;;;;;;;;;;;;;;;;;5071945;28;19909;-84
2023/12/25 13:40:45;;;;;;;;;;;;;;;;;;5072977;28;19954;-84
2023/12/25 13:43:10;;;;;;;;;;;;;;;;;;5071910;28;19963;-84
2023/12/25 13:45:36;;;;;;;;;;;;;;;;;;5072039;28;19963;-84
2023/12/25 13:48:01;;;;;;;;;;;;;;;;;;5070891;28;19954;-85
2023/12/25 13:50:26;;;;;;;;;;;;;;;;;;5072843;28;20383;-85
2023/12/25 13:52:51;;;;;;;;;;;;;;;;;;5072125;28;20401;-85
2023/12/25 13:55:16;;;;;;;;;;;;;;;;;;5074113;28;20374;-84
2023/12/25 13:57:41;;;;;;;;;;;;;;;;;;5077148;28;19909;-84
2023/12/25 14:00:09;;;;;;;;;;;;;;;;;;5074329;28;20020;-84
2023/12/25 14:02:34;;;;;;;;;;;;;;;;;;5076429;28;19917;-85
2023/12/25 14:04:59;;;;;;;;;;;;;;;;;;5074139;28;20351;-84
2023/12/25 14:07:24;;;;;;;;;;;;;;;;;;5077032;28;19935;-83
2023/12/25 14:09:49;;;;;;;;;;;;;;;;;;5075330;28;19928;-85
2023/12/25 14:12:14;;;;;;;;;;;;;;;;;;5073247;28;19909;-84
2023/12/25 14:14:39;;;;;;;;;;;;;;;;;;5068945;28;19926;-84
2023/12/25 14:17:04;;;;;;;;;;;;;;;;;;5069166;28;19968;-85
2023/12/25 14:19:30;;;;;;;;;;;;;;;;;;5072219;28;19956;-84
2023/12/25 14:21:55;;;;;;;;;;;;;;;;;;5068321;28;19909;-83
2023/12/25 14:24:20;;;;;;;;;;;;;;;;;;5069723;28;19961;-84
2023/12/25 14:26:45;;;;;;;;;;;;;;;;;;5067832;28;20682;-84
2023/12/25 14:29:11;;;;;;;;;;;;;;;;;;5066962;28;20003;-84
2023/12/25 14:31:36;;;;;;;;;;;;;;;;;;5069965;28;19916;-83
2023/12/25 14:34:01;;;;;;;;;;;;;;;;;;5073114;28;19908;-85
2023/12/25 14:36:26;;;;;;;;;;;;;;;;;;5073652;28;19923;-84
2023/12/25 14:38:52;;;;;;;;;;;;;;;;;;5078395;28;19915;-85
2023/12/25 14:41:17;;;;;;;;;;;;;;;;;;5076254;28;19966;-84
2023/12/25 14:43:44;;;;;;;;;;;;;;;;;;5076152;28;19909;-84
2023/12/25 14:46:09;;;;;;;;;;;;;;;;;;5077719;28;19909;-84
2023/12/25 14:48:34;;;;;;;;;;;;;;;;;;5076853;28;19913;-84
2023/12/25 14:50:59;;;;;;;;;;;;;;;;;;5077010;28;19908;-83
2023/12/25 14:53:24;;;;;;;;;;;;;;;;;;5076976;28;20390;-85
2023/12/25 14:55:49;;;;;;;;;;;;;;;;;;5076806;28;19986;-84
2023/12/25 14:58:14;;;;;;;;;;;;;;;;;;5075647;28;19952;-85
2023/12/25 15:00:40;;;;;;;;;;;;;;;;;;5070985;28;19912;-85
2023/12/25 15:03:05;;;;;;;;;;;;;;;;;;5077290;28;19912;-85
2023/12/25 15:05:30;;;;;;;;;;;;;;;;;;5076357;28;19919;-85
2023/12/25 15:07:58;;;;;;;;;;;;;;;;;;5076685;28;20007;-85
2023/12/25 15:10:23;;;;;;;;;;;;;;;;;;5075038;28;19916;-85
2023/12/25 15:12:48;;;;;;;;;;;;;;;;;;5075543;28;19966;-85
2023/12/25 15:15:13;;;;;;;;;;;;;;;;;;5076790;28;19958;-85
2023/12/25 15:17:38;;;;;;;;;;;;;;;;;;5076580;28;19912;-85
2023/12/25 15:20:04;;;;;;;;;;;;;;;;;;5076406;28;20341;-85
2023/12/25 15:22:29;;;;;;;;;;;;;;;;;;5076908;28;19908;-85
2023/12/25 15:24:54;;;;;;;;;;;;;;;;;;5076837;28;19944;-85
2023/12/25 15:27:19;;;;;;;;;;;;;;;;;;5075485;28;19919;-86
2023/12/25 15:29:44;;;;;;;;;;;;;;;;;;5075803;28;19932;-85
2023/12/25 15:32:09;;;;;;;;;;;;;;;;;;5076758;28;19917;-85
2023/12/25 15:34:34;;;;;;;;;;;;;;;;;;5076918;28;19909;-85
2023/12/25 15:36:59;;;;;;;;;;;;;;;;;;5077030;28;19916;-85
2023/12/25 15:39:25;;;;;;;;;;;;;;;;;;5075614;28;20434;-85
2023/12/25 15:41:50;;;;;;;;;;;;;;;;;;5078577;28;20011;-85
2023/12/25 15:44:15;;;;;;;;;;;;;;;;;;5077777;28;19909;-85
2023/12/25 15:46:40;;;;;;;;;;;;;;;;;;5074836;28;20363;-85
2023/12/25 15:49:06;;;;;;;;;;;;;;;;;;5074840;28;19912;-85
2023/12/25 15:51:31;;;;;;;;;;;;;;;;;;5076391;28;19908;-85
2023/12/25 15:53:56;;;;;;;;;;;;;;;;;;5075678;28;19915;-85
2023/12/25 15:56:21;;;;;;;;;;;;;;;;;;5075668;28;20379;-85
2023/12/25 15:58:46;;;;;;;;;;;;;;;;;;5073912;28;20050;-85
2023/12/25 16:01:11;;;;;;;;;;;;;;;;;;5075403;28;19909;-85
2023/12/25 16:03:36;;;;;;;;;;;;;;;;;;5075865;28;19909;-85
2023/12/25 16:06:02;;;;;;;;;;;;;;;;;;5076419;28;19915;-85
2023/12/25 16:08:27;;;;;;;;;;;;;;;;;;5076264;28;19917;-86
2023/12/25 16:10:52;;;;;;;;;;;;;;;;;;5076402;28;19943;-85
2023/12/25 16:13:18;;;;;;;;;;;;;;;;;;5074857;28;20179;-85
2023/12/25 16:15:43;;;;;;;;;;;;;;;;;;5075974;28;19909;-85
2023/12/25 16:18:08;;;;;;;;;;;;;;;;;;5075635;28;19908;-85
2023/12/25 16:20:33;;;;;;;;;;;;;;;;;;5075881;28;19919;-85
2023/12/25 16:22:58;;;;;;;;;;;;;;;;;;5074748;28;19908;-85
2023/12/25 16:25:23;;;;;;;;;;;;;;;;;;5074444;28;19912;-85
2023/12/25 16:27:48;;;;;;;;;;;;;;;;;;5076561;28;19961;-85
2023/12/25 16:30:13;;;;;;;;;;;;;;;;;;5075565;28;20018;-85